Time;durP1;ratioP1;P1;durP2;ratioP2;P2;SDS_P1;SDS_P2;PMS_P1;PMS_P2;Temp;Humidity;BMP_temperature;BMP_pressure;BME280_temperature;BME280_humidity;BME280_pressure;Samples;Min_cycle;Max_cycle;Signal;HPM_P1;HPM_P2
2021/06/15 00:00:13;;;;;;;6.32;5.18;;;18.20;99.90;;;;;;5128782;27;20035;-46
2021/06/15 00:02:39;;;;;;;5.68;4.68;;;18.20;99.90;;;;;;5129496;27;20023;-45
2021/06/15 00:05:07;;;;;;;6.07;4.80;;;18.10;99.90;;;;;;5129417;27;20396;-45
2021/06/15 00:07:32;;;;;;;5.95;5.35;;;18.10;99.90;;;;;;5129376;27;20028;-43
2021/06/15 00:09:58;;;;;;;8.30;5.63;;;18.10;99.90;;;;;;5128688;28;20035;-44
2021/06/15 00:12:23;;;;;;;7.40;5.60;;;18.10;99.90;;;;;;5129320;28;20031;-47
2021/06/15 00:14:49;;;;;;;11.52;7.43;;;18.10;99.90;;;;;;5128008;28;20483;-45
2021/06/15 00:17:14;;;;;;;13.95;8.45;;;18.10;99.90;;;;;;5129552;28;20106;-44
2021/06/15 00:19:40;;;;;;;13.32;8.13;;;18.10;99.90;;;;;;5128317;28;20105;-44
2021/06/15 00:22:05;;;;;;;13.07;9.10;;;18.20;99.90;;;;;;5129074;27;20377;-44
2021/06/15 00:24:31;;;;;;;13.02;8.38;;;18.20;99.90;;;;;;5129041;28;20112;-44
2021/06/15 00:26:56;;;;;;;13.00;7.82;;;18.30;99.90;;;;;;5114826;28;20015;-47
2021/06/15 00:29:22;;;;;;;12.95;8.40;;;18.30;99.90;;;;;;5128756;28;20032;-45
2021/06/15 00:31:47;;;;;;;11.00;8.10;;;18.30;99.90;;;;;;5129163;27;20023;-44
2021/06/15 00:34:13;;;;;;;12.70;8.20;;;18.30;99.90;;;;;;5129470;27;20034;-46
2021/06/15 00:36:38;;;;;;;10.10;7.45;;;18.30;99.90;;;;;;5128904;28;20023;-46
2021/06/15 00:39:04;;;;;;;10.25;7.85;;;18.30;99.90;;;;;;5128720;28;20023;-44
2021/06/15 00:41:30;;;;;;;12.40;7.47;;;18.30;99.90;;;;;;5129807;27;20587;-45
2021/06/15 00:43:55;;;;;;;10.18;7.60;;;18.20;99.90;;;;;;5131615;27;20481;-45
2021/06/15 00:46:21;;;;;;;11.02;7.57;;;18.20;99.90;;;;;;5121272;27;20196;-46
2021/06/15 00:48:47;;;;;;;14.73;8.15;;;18.20;99.90;;;;;;5126490;27;20539;-44
2021/06/15 00:51:14;;;;;;;12.90;9.18;;;18.20;99.90;;;;;;5132270;27;20023;-43
2021/06/15 00:53:40;;;;;;;11.88;8.07;;;18.20;99.90;;;;;;5133094;27;20042;-46
2021/06/15 00:56:05;;;;;;;12.45;8.20;;;18.10;99.90;;;;;;5124872;27;20027;-44
2021/06/15 00:58:32;;;;;;;10.38;7.72;;;18.20;99.90;;;;;;5125688;27;20128;-44
2021/06/15 01:00:57;;;;;;;11.38;7.90;;;18.20;99.90;;;;;;5132187;27;20023;-43
2021/06/15 01:03:25;;;;;;;11.95;7.88;;;18.10;99.90;;;;;;5131632;27;20201;-44
2021/06/15 01:05:52;;;;;;;10.85;8.32;;;18.10;99.90;;;;;;5133298;27;20098;-44
2021/06/15 01:08:35;;;;;;;12.10;7.15;;;18.10;99.90;;;;;;5133362;27;20023;-46
2021/06/15 01:11:13;;;;;;;8.45;7.18;;;18.10;99.90;;;;;;5130770;27;20048;-44
2021/06/15 01:14:01;;;;;;;9.73;7.85;;;18.00;99.90;;;;;;5132823;27;20425;-43
2021/06/15 01:16:37;;;;;;;10.32;7.65;;;18.00;99.90;;;;;;5132431;27;20031;-44
2021/06/15 01:19:40;;;;;;;13.43;8.07;;;18.00;99.90;;;;;;5131957;27;20023;-43
2021/06/15 01:22:43;;;;;;;8.88;7.10;;;17.90;99.90;;;;;;5132102;27;20480;-43
2021/06/15 01:25:15;;;;;;;11.55;7.72;;;17.90;99.90;;;;;;5096733;27;20075;-44
2021/06/15 01:27:51;;;;;;;9.38;6.95;;;17.80;99.90;;;;;;5123578;27;20038;-44
2021/06/15 01:30:22;;;;;;;11.70;7.57;;;17.80;99.90;;;;;;5131471;27;20016;-44
2021/06/15 01:32:56;;;;;;;11.32;7.40;;;17.70;99.90;;;;;;5130736;27;20457;-43
2021/06/15 01:35:23;;;;;;;8.23;6.95;;;17.70;99.90;;;;;;5131988;27;20374;-44
2021/06/15 01:37:57;;;;;;;12.35;7.72;;;17.70;99.90;;;;;;5132154;27;20023;-44
2021/06/15 01:40:29;;;;;;;7.47;6.50;;;17.60;99.90;;;;;;5131132;27;20031;-43
2021/06/15 01:42:59;;;;;;;9.85;7.70;;;17.50;99.90;;;;;;5131979;27;20464;-44
2021/06/15 01:45:40;;;;;;;13.00;9.25;;;17.50;99.90;;;;;;5131884;27;20043;-43
2021/06/15 01:48:25;;;;;;;;;;;17.50;99.90;;;;;;5132163;27;20035;-44
2021/06/15 01:50:53;;;;;;;9.15;7.47;;;17.40;99.90;;;;;;5131373;27;19903;-44
2021/06/15 01:53:20;;;;;;;7.85;7.05;;;17.30;99.90;;;;;;5132340;27;20034;-44
2021/06/15 01:55:51;;;;;;;9.45;7.55;;;17.30;99.90;;;;;;5127460;27;20030;-44
2021/06/15 01:58:17;;;;;;;12.23;8.07;;;17.30;99.90;;;;;;5123006;27;20273;-44
2021/06/15 02:00:44;;;;;;;11.57;8.07;;;17.30;99.90;;;;;;5130981;27;20499;-43
2021/06/15 02:03:10;;;;;;;12.65;7.90;;;17.20;99.90;;;;;;5131407;27;20050;-44
2021/06/15 02:05:43;;;;;;;10.25;7.70;;;17.20;99.90;;;;;;5131575;27;20027;-44
2021/06/15 02:08:16;;;;;;;10.00;8.43;;;17.20;99.90;;;;;;5131410;27;20033;-45
2021/06/15 02:10:41;;;;;;;11.25;8.50;;;17.10;99.90;;;;;;5130517;27;20122;-44
2021/06/15 02:13:08;;;;;;;11.77;8.18;;;17.10;99.90;;;;;;5131223;27;20098;-44
2021/06/15 02:15:34;;;;;;;12.30;8.77;;;17.10;99.90;;;;;;5130006;27;20477;-43
2021/06/15 02:18:01;;;;;;;13.15;9.25;;;17.00;99.90;;;;;;5131205;27;20119;-44
2021/06/15 02:20:35;;;;;;;11.63;8.93;;;17.00;99.90;;;;;;5130448;27;20059;-43
2021/06/15 02:23:03;;;;;;;14.02;8.98;;;17.00;99.90;;;;;;5131167;27;20019;-44
2021/06/15 02:25:34;;;;;;;12.90;8.93;;;16.90;99.90;;;;;;5125811;27;20019;-43
2021/06/15 02:28:00;;;;;;;15.80;9.32;;;16.90;99.90;;;;;;5122360;27;20016;-44
2021/06/15 02:30:26;;;;;;;11.45;8.35;;;16.90;99.90;;;;;;5125766;27;20027;-47
2021/06/15 02:32:55;;;;;;;10.93;8.82;;;16.80;99.90;;;;;;5116314;27;20022;-43
2021/06/15 02:35:23;;;;;;;13.00;9.63;;;16.80;99.90;;;;;;5122325;27;20019;-43
2021/06/15 02:38:05;;;;;;;14.10;10.95;;;16.80;99.90;;;;;;5131146;27;20026;-44
2021/06/15 02:40:32;;;;;;;11.23;9.52;;;16.80;99.90;;;;;;5115702;27;20019;-44
2021/06/15 02:42:59;;;;;;;17.83;10.25;;;16.70;99.90;;;;;;5122061;27;20030;-44
2021/06/15 02:45:29;;;;;;;14.80;10.70;;;16.70;99.90;;;;;;5130399;27;20019;-44
2021/06/15 02:47:59;;;;;;;15.55;10.77;;;16.70;99.90;;;;;;5116255;27;20085;-44
2021/06/15 02:50:27;;;;;;;15.85;11.25;;;16.60;99.90;;;;;;5113729;27;20034;-44
2021/06/15 02:53:06;;;;;;;16.67;11.32;;;16.60;99.90;;;;;;5130531;27;20099;-44
2021/06/15 02:55:36;;;;;;;16.95;10.40;;;16.50;99.90;;;;;;5123854;27;20035;-43
2021/06/15 02:58:03;;;;;;;14.57;9.33;;;16.50;99.90;;;;;;5116096;27;20018;-43
2021/06/15 03:00:28;;;;;;;14.02;10.40;;;16.50;99.90;;;;;;5129901;27;20253;-44
2021/06/15 03:02:54;;;;;;;16.35;10.98;;;16.50;99.90;;;;;;5120643;27;20393;-44
2021/06/15 03:05:20;;;;;;;16.05;11.43;;;16.50;99.90;;;;;;5098933;28;20091;-44
2021/06/15 03:07:46;;;;;;;15.13;12.32;;;16.40;99.90;;;;;;5100079;28;20032;-43
2021/06/15 03:10:12;;;;;;;16.23;11.35;;;16.40;99.90;;;;;;5097351;28;20028;-44
2021/06/15 03:12:51;;;;;;;17.27;12.05;;;16.40;99.90;;;;;;5100629;28;20028;-44
2021/06/15 03:15:20;;;;;;;15.85;11.20;;;16.30;99.90;;;;;;5098660;28;20024;-43
2021/06/15 03:18:02;;;;;;;20.48;12.95;;;16.30;99.90;;;;;;5098544;28;20024;-44
2021/06/15 03:20:29;;;;;;;15.75;11.27;;;16.20;99.90;;;;;;5097164;28;20177;-43
2021/06/15 03:23:00;;;;;;;23.33;13.45;;;16.30;99.90;;;;;;5099099;28;20012;-44
2021/06/15 03:25:33;;;;;;;17.98;13.15;;;16.20;99.90;;;;;;5102465;27;20073;-43
2021/06/15 03:28:11;;;;;;;17.00;12.05;;;16.20;99.90;;;;;;5100625;28;20020;-44
2021/06/15 03:30:36;;;;;;;19.65;13.57;;;16.20;99.90;;;;;;5098236;28;20031;-43
2021/06/15 03:33:09;;;;;;;23.00;14.05;;;16.20;99.90;;;;;;5097955;28;20019;-45
2021/06/15 03:35:39;;;;;;;21.50;13.60;;;16.20;99.90;;;;;;5101952;27;20051;-44
2021/06/15 03:38:07;;;;;;;18.33;12.38;;;16.20;99.90;;;;;;5099791;27;20028;-44
2021/06/15 03:40:47;;;;;;;20.27;13.23;;;16.10;99.90;;;;;;5098583;28;20020;-44
2021/06/15 03:43:13;;;;;;;;;;;16.20;99.90;;;;;;5098704;28;20016;-44
2021/06/15 03:45:43;;;;;;;17.90;13.43;;;16.10;99.90;;;;;;5098180;28;19911;-44
2021/06/15 03:48:09;;;;;;;21.20;14.50;;;16.10;99.90;;;;;;5098651;28;20028;-44
2021/06/15 03:50:36;;;;;;;17.25;13.73;;;16.10;99.90;;;;;;5102938;27;20053;-44
2021/06/15 03:53:05;;;;;;;20.55;13.90;;;16.00;99.90;;;;;;5099237;28;20012;-44
2021/06/15 03:55:32;;;;;;;21.77;14.82;;;16.00;99.90;;;;;;5093811;28;20481;-44
2021/06/15 03:57:59;;;;;;;22.15;15.05;;;16.00;99.90;;;;;;5118494;27;20023;-44
2021/06/15 04:00:25;;;;;;;23.38;15.43;;;16.00;99.90;;;;;;5102483;28;20020;-45
2021/06/15 04:02:54;;;;;;;23.10;16.15;;;15.90;99.90;;;;;;5116877;28;20039;-44
2021/06/15 04:05:22;;;;;;;20.10;14.25;;;16.00;99.90;;;;;;5129286;28;20392;-42
2021/06/15 04:07:50;;;;;;;23.40;16.48;;;16.00;99.90;;;;;;5128383;27;20027;-42
2021/06/15 04:10:16;;;;;;;20.67;15.13;;;15.90;99.90;;;;;;5127102;28;20078;-43
2021/06/15 04:12:43;;;;;;;22.80;15.13;;;16.00;99.90;;;;;;5127691;27;20579;-45
2021/06/15 04:15:10;;;;;;;21.95;15.25;;;16.00;99.90;;;;;;5129167;27;20027;-46
2021/06/15 04:17:41;;;;;;;23.58;15.55;;;16.00;99.90;;;;;;5132082;27;20030;-44
2021/06/15 04:20:09;;;;;;;19.50;15.48;;;16.00;99.90;;;;;;5103055;28;20069;-45
2021/06/15 04:22:41;;;;;;;24.88;16.60;;;16.00;99.90;;;;;;5099093;28;20036;-44
2021/06/15 04:25:10;;;;;;;21.98;15.27;;;16.00;99.90;;;;;;5092711;28;20032;-44
2021/06/15 04:27:36;;;;;;;23.92;15.70;;;16.00;99.90;;;;;;5114199;27;20020;-44
2021/06/15 04:30:04;;;;;;;23.77;15.80;;;16.10;99.90;;;;;;5129462;27;20051;-44
2021/06/15 04:32:51;;;;;;;20.60;15.43;;;16.10;99.90;;;;;;5133049;27;20332;-46
2021/06/15 04:35:27;;;;;;;21.17;15.75;;;16.10;99.90;;;;;;5133295;27;20399;-44
2021/06/15 04:37:54;;;;;;;18.27;14.57;;;16.10;99.90;;;;;;5133155;27;20019;-44
2021/06/15 04:40:24;;;;;;;21.75;15.95;;;16.10;99.90;;;;;;5130781;27;20277;-45
2021/06/15 04:42:52;;;;;;;22.05;15.45;;;16.20;99.90;;;;;;5132393;27;20022;-44
2021/06/15 04:45:42;;;;;;;23.27;15.10;;;16.20;99.90;;;;;;5132758;27;20023;-44
2021/06/15 04:48:30;;;;;;;19.52;15.05;;;16.20;99.90;;;;;;5063112;28;20078;-44
2021/06/15 04:51:01;;;;;;;18.33;13.88;;;16.20;99.90;;;;;;5031794;28;20033;-44
2021/06/15 04:53:31;;;;;;;21.25;14.95;;;16.30;99.90;;;;;;5105665;28;20024;-44
2021/06/15 04:55:59;;;;;;;25.98;16.30;;;16.40;99.90;;;;;;5109209;28;20015;-45
2021/06/15 04:58:25;;;;;;;19.80;15.82;;;16.40;99.90;;;;;;5099461;27;20027;-44
2021/06/15 05:00:52;;;;;;;20.70;14.40;;;16.50;99.90;;;;;;5118147;27;20380;-45
2021/06/15 05:03:19;;;;;;;28.15;17.17;;;16.50;99.90;;;;;;5112216;28;20118;-44
2021/06/15 05:05:48;;;;;;;20.58;14.68;;;16.60;99.90;;;;;;5112035;28;20489;-45
2021/06/15 05:08:14;;;;;;;25.20;15.88;;;16.60;99.90;;;;;;5112208;28;20419;-45
2021/06/15 05:10:42;;;;;;;20.77;13.95;;;16.70;99.90;;;;;;5110111;28;20269;-44
2021/06/15 05:13:11;;;;;;;19.85;14.60;;;16.80;99.90;;;;;;5110823;28;20098;-45
2021/06/15 05:15:42;;;;;;;21.20;14.20;;;16.80;99.90;;;;;;5108920;28;20039;-45
2021/06/15 05:18:09;;;;;;;20.77;13.65;;;16.90;99.90;;;;;;5110635;28;20211;-44
2021/06/15 05:20:35;;;;;;;33.78;17.50;;;17.00;99.90;;;;;;5110010;28;20386;-44
2021/06/15 05:23:06;;;;;;;25.90;16.63;;;17.00;99.90;;;;;;5101892;28;20024;-44
2021/06/15 05:25:31;;;;;;;;;;;17.00;99.90;;;;;;5106423;28;20509;-45
2021/06/15 05:27:57;;;;;;;24.50;16.48;;;17.10;99.90;;;;;;5100961;28;19908;-44
2021/06/15 05:30:24;;;;;;;28.23;17.75;;;17.10;99.90;;;;;;5098419;27;20040;-48
2021/06/15 05:32:50;;;;;;;31.38;19.30;;;17.10;99.90;;;;;;5092639;28;20028;-44
2021/06/15 05:35:16;;;;;;;23.42;16.30;;;17.20;99.90;;;;;;5107805;28;21251;-45
2021/06/15 05:37:43;;;;;;;23.30;15.57;;;17.20;99.90;;;;;;5125223;28;20023;-45
2021/06/15 05:40:10;;;;;;;24.30;15.45;;;17.30;99.90;;;;;;5128640;28;20031;-44
2021/06/15 05:42:35;;;;;;;23.27;15.60;;;17.30;99.90;;;;;;5097813;28;20028;-45
2021/06/15 05:45:01;;;;;;;26.48;15.23;;;17.40;99.90;;;;;;5092506;28;20016;-45
2021/06/15 05:47:29;;;;;;;22.20;15.95;;;17.40;99.90;;;;;;5106273;28;20135;-45
2021/06/15 05:49:54;;;;;;;30.50;16.20;;;17.40;99.90;;;;;;5102471;28;20027;-45
2021/06/15 05:52:20;;;;;;;26.38;18.48;;;17.40;99.90;;;;;;5099787;28;20031;-45
2021/06/15 05:54:46;;;;;;;25.23;17.45;;;17.40;99.90;;;;;;5099484;28;20439;-44
2021/06/15 05:57:12;;;;;;;27.88;17.45;;;17.50;99.90;;;;;;5101195;27;20385;-45
2021/06/15 05:59:37;;;;;;;26.85;15.70;;;17.60;99.90;;;;;;5106041;28;20031;-45
2021/06/15 06:02:03;;;;;;;25.98;16.63;;;17.70;99.90;;;;;;5097099;28;20081;-45
2021/06/15 06:04:48;;;;;;;27.30;16.40;;;17.80;99.90;;;;;;5098170;28;20016;-45
2021/06/15 06:09:58;;;;;;;23.20;15.68;;;18.00;99.90;;;;;;5105501;28;113529;-46
2021/06/15 06:12:24;;;;;;;18.38;13.85;;;18.10;99.90;;;;;;5110866;28;20051;-45
2021/06/15 06:14:50;;;;;;;30.90;17.23;;;18.30;99.90;;;;;;5109386;28;20028;-44
2021/06/15 06:17:16;;;;;;;22.75;14.98;;;18.30;99.90;;;;;;5092386;28;20028;-42
2021/06/15 06:19:43;;;;;;;22.33;16.17;;;18.50;99.90;;;;;;5089860;28;20119;-43
2021/06/15 06:22:08;;;;;;;27.10;15.98;;;18.60;99.90;;;;;;5090536;28;20032;-43
2021/06/15 06:24:34;;;;;;;24.25;15.95;;;18.80;99.90;;;;;;5090172;28;20035;-44
2021/06/15 06:26:59;;;;;;;23.40;15.48;;;18.80;99.90;;;;;;5090722;27;20028;-43
2021/06/15 06:29:25;;;;;;;20.98;13.23;;;18.90;99.90;;;;;;5121743;27;20438;-44
2021/06/15 06:31:51;;;;;;;25.23;15.52;;;19.00;99.90;;;;;;5109708;27;20485;-44
2021/06/15 06:34:16;;;;;;;25.27;13.95;;;19.30;99.90;;;;;;5105844;27;20027;-43
2021/06/15 06:36:42;;;;;;;14.98;11.40;;;19.40;99.90;;;;;;5121983;27;20032;-44
2021/06/15 06:39:09;;;;;;;17.48;12.00;;;19.60;99.90;;;;;;5129396;27;20035;-45
2021/06/15 06:41:36;;;;;;;16.85;12.07;;;19.70;99.90;;;;;;5130060;27;20034;-44
2021/06/15 06:44:02;;;;;;;22.92;14.73;;;19.80;99.90;;;;;;5130739;27;20023;-44
2021/06/15 06:46:27;;;;;;;21.52;14.57;;;19.70;99.90;;;;;;5111922;27;20103;-44
2021/06/15 06:48:53;;;;;;;17.92;13.90;;;19.50;99.90;;;;;;5099917;28;20073;-45
2021/06/15 06:51:19;;;;;;;19.75;13.88;;;19.50;99.90;;;;;;5102642;27;20019;-44
2021/06/15 06:53:45;;;;;;;16.65;12.57;;;19.50;99.90;;;;;;5097014;27;20019;-44
2021/06/15 06:56:10;;;;;;;14.70;11.63;;;19.70;99.90;;;;;;5096746;28;20028;-44
2021/06/15 06:58:36;;;;;;;20.50;12.70;;;19.70;99.90;;;;;;5099235;27;20524;-44
2021/06/15 07:01:02;;;;;;;21.95;13.23;;;19.70;99.90;;;;;;5095657;27;20380;-44
2021/06/15 07:03:28;;;;;;;24.20;13.07;;;19.70;99.90;;;;;;5097293;28;20472;-45
2021/06/15 07:05:53;;;;;;;22.30;12.77;;;19.70;99.90;;;;;;5100067;28;20097;-44
2021/06/15 07:08:19;;;;;;;22.48;13.60;;;19.60;99.90;;;;;;5098539;28;20058;-44
2021/06/15 07:10:45;;;;;;;18.20;13.20;;;19.60;99.90;;;;;;5094660;28;20568;-44
2021/06/15 07:13:10;;;;;;;17.85;11.80;;;19.50;99.90;;;;;;5100078;28;20106;-45
2021/06/15 07:15:36;;;;;;;15.80;11.20;;;19.40;99.90;;;;;;5098094;28;20241;-44
2021/06/15 07:18:02;;;;;;;16.45;13.18;;;19.50;99.90;;;;;;5098947;28;20141;-43
2021/06/15 07:20:27;;;;;;;19.60;14.00;;;19.70;99.90;;;;;;5097336;28;20024;-44
2021/06/15 07:22:53;;;;;;;17.00;12.00;;;19.50;99.90;;;;;;5097241;28;20024;-46
2021/06/15 07:25:19;;;;;;;15.55;11.27;;;19.50;99.90;;;;;;5099275;28;20105;-43
2021/06/15 07:27:45;;;;;;;15.75;10.90;;;19.70;99.90;;;;;;5100540;27;20034;-44
2021/06/15 07:30:11;;;;;;;13.10;10.75;;;19.80;99.90;;;;;;5105779;27;20031;-45
2021/06/15 07:32:36;;;;;;;19.30;11.93;;;19.90;99.90;;;;;;5094880;28;20028;-44
2021/06/15 07:35:03;;;;;;;14.27;10.45;;;20.00;99.90;;;;;;5105995;27;20023;-44
2021/06/15 07:37:28;;;;;;;16.58;11.60;;;20.00;99.90;;;;;;5097496;28;20102;-43
2021/06/15 07:39:54;;;;;;;15.48;10.88;;;20.10;99.90;;;;;;5103821;28;20480;-44
2021/06/15 07:42:19;;;;;;;16.70;10.00;;;20.10;99.90;;;;;;5107239;28;20506;-43
2021/06/15 07:44:44;;;;;;;14.07;9.10;;;20.20;99.90;;;;;;5102673;28;20027;-43
2021/06/15 07:47:10;;;;;;;16.77;11.55;;;20.20;99.90;;;;;;5093258;28;20065;-45
2021/06/15 07:49:35;;;;;;;16.15;11.77;;;20.20;99.90;;;;;;5099986;28;20047;-44
2021/06/15 07:52:02;;;;;;;15.73;11.55;;;20.00;99.90;;;;;;5099370;28;20084;-46
2021/06/15 07:54:27;;;;;;;17.70;11.82;;;20.10;99.90;;;;;;5103561;27;20031;-45
2021/06/15 07:56:53;;;;;;;16.73;10.75;;;20.10;99.90;;;;;;5098310;28;20043;-44
2021/06/15 07:59:18;;;;;;;22.90;11.00;;;20.10;99.90;;;;;;5110141;27;20095;-45
2021/06/15 08:01:44;;;;;;;20.00;11.45;;;20.20;99.90;;;;;;5092829;28;20351;-44
2021/06/15 08:04:14;;;;;;;14.10;10.00;;;20.20;99.90;;;;;;5088492;28;20103;-44
2021/06/15 08:06:39;;;;;;;17.40;9.45;;;20.30;99.90;;;;;;5088420;28;20021;-44
2021/06/15 08:09:05;;;;;;;10.57;8.35;;;20.40;99.90;;;;;;5088146;28;20422;-44
2021/06/15 08:11:31;;;;;;;15.98;9.98;;;20.60;99.90;;;;;;5108367;28;20417;-43
2021/06/15 08:13:56;;;;;;;15.82;9.38;;;20.70;99.90;;;;;;5105028;28;20020;-47
2021/06/15 08:16:22;;;;;;;15.18;9.43;;;20.90;99.90;;;;;;5101298;28;20024;-44
2021/06/15 08:18:47;;;;;;;12.38;9.15;;;20.90;99.90;;;;;;5111539;28;20023;-44
2021/06/15 08:21:13;;;;;;;20.60;10.38;;;21.00;99.90;;;;;;5112115;28;20039;-44
2021/06/15 08:23:40;;;;;;;16.33;9.77;;;21.20;99.90;;;;;;5124754;28;20068;-45
2021/06/15 08:26:05;;;;;;;13.95;10.50;;;21.40;99.90;;;;;;5114887;28;20393;-45
2021/06/15 08:28:31;;;;;;;12.82;8.70;;;21.70;99.90;;;;;;5118152;28;20034;-44
2021/06/15 08:30:57;;;;;;;12.05;7.85;;;22.20;99.90;;;;;;5124899;27;20030;-44
2021/06/15 08:33:23;;;;;;;12.63;8.52;;;23.10;99.90;;;;;;5111326;27;20038;-45
2021/06/15 08:35:49;;;;;;;14.57;9.27;;;23.70;99.90;;;;;;5100655;27;20496;-45
2021/06/15 08:38:17;;;;;;;10.43;7.55;;;23.60;99.90;;;;;;5098016;28;20035;-45
2021/06/15 08:40:48;;;;;;;11.55;8.45;;;23.60;99.90;;;;;;5114329;28;20079;-44
2021/06/15 08:43:14;;;;;;;12.95;8.32;;;23.50;99.90;;;;;;5117709;27;20481;-43
2021/06/15 08:45:41;;;;;;;11.52;8.07;;;23.50;99.90;;;;;;5122900;28;20041;-45
2021/06/15 08:48:07;;;;;;;13.45;8.20;;;23.40;99.90;;;;;;5096329;28;20316;-44
2021/06/15 08:50:32;;;;;;;13.18;8.05;;;23.30;99.90;;;;;;5092594;28;20103;-45
2021/06/15 08:52:58;;;;;;;15.48;8.65;;;23.20;99.90;;;;;;5097133;28;20027;-46
2021/06/15 08:55:30;;;;;;;16.92;9.07;;;23.00;99.90;;;;;;5113505;27;20027;-44
2021/06/15 08:58:15;;;;;;;11.73;8.13;;;22.90;99.90;;;;;;5108453;28;20504;-44
2021/06/15 09:00:42;;;;;;;12.93;8.45;;;22.80;99.90;;;;;;5107587;28;20036;-45
2021/06/15 09:03:12;;;;;;;19.90;8.35;;;22.80;99.90;;;;;;5123852;27;20023;-45
2021/06/15 09:05:37;;;;;;;11.40;7.85;;;22.90;99.90;;;;;;5108771;27;20111;-44
2021/06/15 09:08:05;;;;;;;9.85;7.60;;;22.90;99.90;;;;;;5105984;27;20168;-46
2021/06/15 09:10:41;;;;;;;11.02;7.88;;;22.80;99.90;;;;;;5104088;27;20031;-45
2021/06/15 09:13:34;;;;;;;14.07;9.02;;;22.90;99.90;;;;;;5100542;27;20032;-46
2021/06/15 09:16:01;;;;;;;11.93;7.72;;;22.70;99.90;;;;;;5123326;27;20024;-45
2021/06/15 09:18:28;;;;;;;13.57;8.45;;;22.80;99.90;;;;;;5111233;27;20420;-44
2021/06/15 09:20:54;;;;;;;8.52;6.90;;;22.90;99.90;;;;;;5105548;27;20023;-45
2021/06/15 09:23:31;;;;;;;9.35;7.28;;;23.10;99.90;;;;;;5105315;27;20723;-45
2021/06/15 09:25:56;;;;;;;11.15;7.50;;;23.60;99.90;;;;;;5106230;27;20034;-46
2021/06/15 09:28:22;;;;;;;11.70;7.70;;;24.00;99.90;;;;;;5101582;28;20028;-47
2021/06/15 09:31:03;;;;;;;10.82;7.15;;;24.40;98.50;;;;;;5099572;28;20012;-44
2021/06/15 09:33:38;;;;;;;9.18;7.10;;;24.50;98.00;;;;;;5098762;28;20032;-44
2021/06/15 09:36:14;;;;;;;10.93;7.47;;;24.40;97.70;;;;;;5106485;27;20023;-45
2021/06/15 09:38:53;;;;;;;8.30;6.82;;;24.20;98.60;;;;;;5099501;28;20057;-45
2021/06/15 09:41:32;;;;;;;8.93;6.82;;;24.30;98.20;;;;;;5100598;28;20095;-44
2021/06/15 09:44:11;;;;;;;10.60;6.47;;;24.50;98.20;;;;;;5100836;28;20024;-46
2021/06/15 09:46:56;;;;;;;9.60;6.15;;;24.90;97.70;;;;;;5101013;28;20366;-46
2021/06/15 09:49:41;;;;;;;9.30;7.55;;;25.00;96.20;;;;;;5101062;28;20057;-44
2021/06/15 09:52:21;;;;;;;8.43;6.38;;;24.80;96.00;;;;;;5099540;28;20024;-45
2021/06/15 09:54:53;;;;;;;8.18;5.60;;;25.30;95.50;;;;;;5099718;27;20096;-47
2021/06/15 09:57:32;;;;;;;9.50;5.80;;;25.50;93.70;;;;;;5099769;27;20031;-44
2021/06/15 09:59:58;;;;;;;9.48;6.22;;;26.10;94.10;;;;;;5100452;28;20028;-47
2021/06/15 10:02:24;;;;;;;12.55;6.10;;;27.40;92.10;;;;;;5099242;28;20444;-45
2021/06/15 10:04:50;;;;;;;7.35;5.60;;;28.10;89.40;;;;;;5102116;28;20070;-44
2021/06/15 10:07:28;;;;;;;6.70;4.70;;;28.80;82.80;;;;;;5098988;28;20040;-45
2021/06/15 10:09:55;;;;;;;8.15;4.72;;;29.00;78.40;;;;;;5096417;28;20050;-45
2021/06/15 10:12:21;;;;;;;5.07;4.07;;;29.10;77.60;;;;;;5099690;28;20035;-44
2021/06/15 10:14:47;;;;;;;8.05;5.20;;;29.10;75.50;;;;;;5096692;28;20428;-44
2021/06/15 10:17:13;;;;;;;6.90;4.95;;;28.40;75.50;;;;;;5100151;28;20023;-44
2021/06/15 10:19:39;;;;;;;6.07;4.70;;;28.00;77.40;;;;;;5089552;28;20089;-44
2021/06/15 10:22:06;;;;;;;7.50;5.47;;;27.80;78.70;;;;;;5092744;28;20432;-45
2021/06/15 10:24:32;;;;;;;4.97;3.80;;;28.00;77.60;;;;;;5097874;27;20045;-44
2021/06/15 10:26:58;;;;;;;7.20;3.75;;;27.70;77.20;;;;;;5097773;27;20374;-45
2021/06/15 10:29:25;;;;;;;5.45;4.20;;;27.50;77.30;;;;;;5097236;28;20023;-46
2021/06/15 10:31:52;;;;;;;4.13;3.67;;;27.60;75.50;;;;;;5098131;28;20072;-48
2021/06/15 10:34:49;;;;;;;5.10;3.63;;;27.80;74.60;;;;;;5119856;27;20015;-45
2021/06/15 10:37:33;;;;;;;5.38;3.78;;;28.30;72.60;;;;;;5092952;28;20401;-45
2021/06/15 10:40:03;;;;;;;5.80;3.15;;;28.30;71.20;;;;;;5089343;28;20301;-45
2021/06/15 10:42:28;;;;;;;6.93;4.10;;;27.80;75.00;;;;;;5101007;28;20031;-44
2021/06/15 10:45:21;;;;;;;6.03;3.58;;;27.60;75.20;;;;;;5109771;28;20019;-45
2021/06/15 10:48:20;;;;;;;4.80;3.17;;;28.40;71.70;;;;;;5103433;28;20053;-45
2021/06/15 10:50:50;;;;;;;4.10;3.40;;;28.50;70.20;;;;;;5074621;28;20035;-45
2021/06/15 10:53:18;;;;;;;6.82;3.75;;;28.30;70.30;;;;;;5089563;28;20036;-44
2021/06/15 10:55:50;;;;;;;5.43;3.72;;;27.90;69.20;;;;;;5100871;27;20242;-44
2021/06/15 10:58:36;;;;;;;5.97;4.55;;;27.70;70.10;;;;;;5114284;27;20496;-45
2021/06/15 11:01:15;;;;;;;6.38;4.97;;;27.20;73.30;;;;;;5096557;28;20043;-45
2021/06/15 11:03:51;;;;;;;7.93;6.22;;;26.70;73.60;;;;;;5098856;28;20106;-45
2021/06/15 11:06:19;;;;;;;8.73;5.85;;;26.30;75.30;;;;;;5100520;28;20036;-45
2021/06/15 11:08:45;;;;;;;8.43;5.93;;;25.70;77.10;;;;;;5094125;28;20038;-45
2021/06/15 11:11:19;;;;;;;9.73;6.00;;;25.60;77.90;;;;;;5082813;28;20047;-45
2021/06/15 11:13:49;;;;;;;8.98;6.38;;;25.50;80.70;;;;;;5098548;28;20484;-45
2021/06/15 11:16:34;;;;;;;8.35;5.38;;;25.70;79.10;;;;;;5099694;28;20573;-47
2021/06/15 11:19:17;;;;;;;7.15;5.28;;;25.90;78.00;;;;;;5100158;28;20094;-44
2021/06/15 11:21:57;;;;;;;12.48;4.82;;;26.40;77.80;;;;;;5099807;28;20036;-45
2021/06/15 11:24:45;;;;;;;;;;;26.70;75.00;;;;;;5091645;28;20020;-45
2021/06/15 11:27:11;;;;;;;6.20;4.55;;;27.10;72.80;;;;;;5116848;27;20181;-44
2021/06/15 11:29:41;;;;;;;5.57;4.28;;;27.90;74.40;;;;;;5127964;27;20645;-47
2021/06/15 11:32:36;;;;;;;5.53;3.95;;;29.00;73.60;;;;;;5098897;28;20020;-46
2021/06/15 11:35:02;;;;;;;5.32;3.80;;;30.10;68.30;;;;;;5100896;28;20046;-45
2021/06/15 11:37:37;;;;;;;6.85;3.92;;;31.10;66.50;;;;;;5099075;28;20027;-45
2021/06/15 11:40:30;;;;;;;7.47;3.53;;;32.10;62.50;;;;;;5109917;28;20034;-45
2021/06/15 11:43:17;;;;;;;5.18;3.28;;;32.40;59.10;;;;;;5090362;28;20047;-46
2021/06/15 11:45:51;;;;;;;7.60;3.95;;;31.60;60.20;;;;;;5090513;28;20077;-45
2021/06/15 11:48:33;;;;;;;6.80;3.72;;;31.60;59.50;;;;;;5090424;28;20016;-46
2021/06/15 11:51:07;;;;;;;5.43;3.30;;;31.20;61.30;;;;;;5091145;28;20027;-47
2021/06/15 11:53:37;;;;;;;4.53;2.85;;;31.50;55.60;;;;;;5100843;28;20026;-45
2021/06/15 11:56:06;;;;;;;5.97;2.90;;;31.80;59.10;;;;;;5100957;27;20023;-45
2021/06/15 11:58:34;;;;;;;5.67;2.90;;;32.50;58.20;;;;;;5098984;28;20089;-45
2021/06/15 12:01:10;;;;;;;5.63;3.00;;;32.70;55.60;;;;;;5098821;28;20257;-47
2021/06/15 12:03:38;;;;;;;5.75;3.30;;;32.60;54.90;;;;;;5097030;28;20069;-47
2021/06/15 12:06:04;;;;;;;6.05;3.40;;;31.70;55.40;;;;;;5098096;28;20027;-45
2021/06/15 12:08:32;;;;;;;5.07;3.33;;;31.20;56.80;;;;;;5099070;28;20054;-46
2021/06/15 12:10:58;;;;;;;5.88;3.03;;;31.00;57.30;;;;;;5097830;28;20431;-45
2021/06/15 12:13:32;;;;;;;8.15;4.32;;;30.90;58.80;;;;;;5100738;28;20058;-45
2021/06/15 12:16:12;;;;;;;6.70;3.85;;;30.20;60.10;;;;;;5104965;28;20016;-44
2021/06/15 12:18:52;;;;;;;5.38;3.80;;;30.30;61.40;;;;;;5097418;28;20035;-45
2021/06/15 12:21:21;;;;;;;7.20;3.90;;;30.30;60.60;;;;;;5097344;28;20022;-45
2021/06/15 12:23:51;;;;;;;6.75;4.05;;;30.20;58.10;;;;;;5097986;28;20385;-46
2021/06/15 12:26:32;;;;;;;5.28;3.53;;;29.50;60.10;;;;;;5111258;28;20107;-45
2021/06/15 12:29:08;;;;;;;3.95;3.35;;;29.60;60.80;;;;;;5119258;28;20027;-45
2021/06/15 12:31:49;;;;;;;5.57;3.63;;;29.60;61.50;;;;;;5110087;28;20630;-46
2021/06/15 12:34:17;;;;;;;5.68;3.30;;;29.50;60.30;;;;;;5110335;28;20652;-45
2021/06/15 12:36:51;;;;;;;5.85;3.47;;;29.30;59.40;;;;;;5109059;28;20726;-45
2021/06/15 12:39:25;;;;;;;6.47;3.22;;;29.30;56.90;;;;;;5104334;28;20071;-47
2021/06/15 12:41:59;;;;;;;5.57;3.25;;;29.10;57.60;;;;;;5102667;28;20469;-44
2021/06/15 12:44:26;;;;;;;4.78;2.95;;;28.90;57.40;;;;;;5096224;28;20373;-44
2021/06/15 12:47:04;;;;;;;5.85;3.42;;;29.10;58.80;;;;;;5099886;28;20048;-44
2021/06/15 12:49:29;;;;;;;5.85;3.22;;;28.70;57.20;;;;;;5102329;28;20017;-43
2021/06/15 12:51:58;;;;;;;5.45;3.25;;;28.30;58.80;;;;;;5101678;28;20085;-45